sensor_id;sensor_type;location;lat;lon;timestamp;temperature;humidity
72206;DHT22;60111;48.286;7.812;2024-02-16T00:02:19;9.80;85.20
72206;DHT22;60111;48.286;7.812;2024-02-16T00:04:52;9.90;84.40
72206;DHT22;60111;48.286;7.812;2024-02-16T00:07:25;9.90;84.90
72206;DHT22;60111;48.286;7.812;2024-02-16T00:09:58;9.80;84.90
72206;DHT22;60111;48.286;7.812;2024-02-16T00:12:31;9.80;85.20
72206;DHT22;60111;48.286;7.812;2024-02-16T00:15:04;9.70;85.40
72206;DHT22;60111;48.286;7.812;2024-02-16T00:17:37;9.70;85.60
72206;DHT22;60111;48.286;7.812;2024-02-16T00:20:10;9.70;85.80
72206;DHT22;60111;48.286;7.812;2024-02-16T00:22:44;9.70;85.70
72206;DHT22;60111;48.286;7.812;2024-02-16T00:25:16;9.70;85.80
72206;DHT22;60111;48.286;7.812;2024-02-16T00:27:49;9.60;85.90
72206;DHT22;60111;48.286;7.812;2024-02-16T00:30:23;9.60;85.90
72206;DHT22;60111;48.286;7.812;2024-02-16T00:32:56;9.60;85.70
72206;DHT22;60111;48.286;7.812;2024-02-16T00:35:29;9.60;85.60
72206;DHT22;60111;48.286;7.812;2024-02-16T00:38:04;9.60;85.70
72206;DHT22;60111;48.286;7.812;2024-02-16T00:40:36;9.60;85.80
72206;DHT22;60111;48.286;7.812;2024-02-16T00:43:11;9.60;85.80
72206;DHT22;60111;48.286;7.812;2024-02-16T00:45:44;9.60;85.70
72206;DHT22;60111;48.286;7.812;2024-02-16T00:48:17;9.60;85.80
72206;DHT22;60111;48.286;7.812;2024-02-16T00:50:50;9.60;85.90
72206;DHT22;60111;48.286;7.812;2024-02-16T00:53:23;9.60;85.90
72206;DHT22;60111;48.286;7.812;2024-02-16T00:55:56;9.60;85.90
72206;DHT22;60111;48.286;7.812;2024-02-16T00:58:28;9.50;86.10
72206;DHT22;60111;48.286;7.812;2024-02-16T01:01:01;9.50;86.20
72206;DHT22;60111;48.286;7.812;2024-02-16T01:03:35;9.50;86.20
72206;DHT22;60111;48.286;7.812;2024-02-16T01:06:09;9.50;86.30
72206;DHT22;60111;48.286;7.812;2024-02-16T01:08:43;9.50;86.60
72206;DHT22;60111;48.286;7.812;2024-02-16T01:11:17;9.40;86.80
72206;DHT22;60111;48.286;7.812;2024-02-16T01:13:51;9.40;86.80
72206;DHT22;60111;48.286;7.812;2024-02-16T01:16:24;9.40;86.90
72206;DHT22;60111;48.286;7.812;2024-02-16T01:18:56;9.40;87.00
72206;DHT22;60111;48.286;7.812;2024-02-16T01:21:29;9.40;87.10
72206;DHT22;60111;48.286;7.812;2024-02-16T01:24:02;9.40;86.80
72206;DHT22;60111;48.286;7.812;2024-02-16T01:26:35;9.40;86.90
72206;DHT22;60111;48.286;7.812;2024-02-16T01:29:07;9.40;86.90
72206;DHT22;60111;48.286;7.812;2024-02-16T01:31:40;9.40;87.00
72206;DHT22;60111;48.286;7.812;2024-02-16T01:34:12;9.40;86.90
72206;DHT22;60111;48.286;7.812;2024-02-16T01:36:45;9.40;86.80
72206;DHT22;60111;48.286;7.812;2024-02-16T01:39:17;9.50;86.60
72206;DHT22;60111;48.286;7.812;2024-02-16T01:41:50;9.50;86.60
72206;DHT22;60111;48.286;7.812;2024-02-16T01:44:23;9.50;86.50
72206;DHT22;60111;48.286;7.812;2024-02-16T01:46:55;9.60;86.40
72206;DHT22;60111;48.286;7.812;2024-02-16T01:49:28;9.60;86.40
72206;DHT22;60111;48.286;7.812;2024-02-16T01:52:01;9.50;86.40
72206;DHT22;60111;48.286;7.812;2024-02-16T01:54:35;9.50;86.60
72206;DHT22;60111;48.286;7.812;2024-02-16T01:57:08;9.40;86.70
72206;DHT22;60111;48.286;7.812;2024-02-16T01:59:43;9.40;86.70
72206;DHT22;60111;48.286;7.812;2024-02-16T02:02:17;9.40;86.90
72206;DHT22;60111;48.286;7.812;2024-02-16T02:04:50;9.40;86.90
72206;DHT22;60111;48.286;7.812;2024-02-16T02:07:27;9.30;86.90
72206;DHT22;60111;48.286;7.812;2024-02-16T02:10:00;9.30;86.90
72206;DHT22;60111;48.286;7.812;2024-02-16T02:12:32;9.30;86.90
72206;DHT22;60111;48.286;7.812;2024-02-16T02:15:05;9.30;87.00
72206;DHT22;60111;48.286;7.812;2024-02-16T02:17:38;9.30;87.00
72206;DHT22;60111;48.286;7.812;2024-02-16T02:20:11;9.30;86.60
72206;DHT22;60111;48.286;7.812;2024-02-16T02:22:44;9.30;86.80
72206;DHT22;60111;48.286;7.812;2024-02-16T02:25:17;9.30;87.00
72206;DHT22;60111;48.286;7.812;2024-02-16T02:27:50;9.20;87.10
72206;DHT22;60111;48.286;7.812;2024-02-16T02:30:22;9.20;87.00
72206;DHT22;60111;48.286;7.812;2024-02-16T02:32:55;9.20;87.00
72206;DHT22;60111;48.286;7.812;2024-02-16T02:35:28;9.20;87.00
72206;DHT22;60111;48.286;7.812;2024-02-16T02:38:00;9.20;87.10
72206;DHT22;60111;48.286;7.812;2024-02-16T02:40:34;9.10;86.90
72206;DHT22;60111;48.286;7.812;2024-02-16T02:43:06;9.10;87.10
72206;DHT22;60111;48.286;7.812;2024-02-16T02:45:40;9.10;87.30
72206;DHT22;60111;48.286;7.812;2024-02-16T02:48:12;9.10;87.40
72206;DHT22;60111;48.286;7.812;2024-02-16T02:50:45;9.00;87.30
72206;DHT22;60111;48.286;7.812;2024-02-16T02:53:17;9.00;87.40
72206;DHT22;60111;48.286;7.812;2024-02-16T02:55:50;9.10;87.40
72206;DHT22;60111;48.286;7.812;2024-02-16T02:58:23;9.00;87.30
72206;DHT22;60111;48.286;7.812;2024-02-16T03:00:56;9.00;87.40
72206;DHT22;60111;48.286;7.812;2024-02-16T03:03:29;9.00;87.40
72206;DHT22;60111;48.286;7.812;2024-02-16T03:06:01;9.00;87.50
72206;DHT22;60111;48.286;7.812;2024-02-16T03:08:36;9.00;87.60
72206;DHT22;60111;48.286;7.812;2024-02-16T03:11:09;8.90;87.70
72206;DHT22;60111;48.286;7.812;2024-02-16T03:13:42;8.90;87.70
72206;DHT22;60111;48.286;7.812;2024-02-16T03:16:14;8.90;87.70
72206;DHT22;60111;48.286;7.812;2024-02-16T03:18:47;8.90;87.70
72206;DHT22;60111;48.286;7.812;2024-02-16T03:21:20;8.90;87.60
72206;DHT22;60111;48.286;7.812;2024-02-16T03:23:53;9.00;87.50
72206;DHT22;60111;48.286;7.812;2024-02-16T03:26:25;9.00;87.30
72206;DHT22;60111;48.286;7.812;2024-02-16T03:28:58;9.00;87.30
72206;DHT22;60111;48.286;7.812;2024-02-16T03:31:31;8.90;87.40
72206;DHT22;60111;48.286;7.812;2024-02-16T03:34:04;8.90;87.50
72206;DHT22;60111;48.286;7.812;2024-02-16T03:36:37;8.80;87.40
72206;DHT22;60111;48.286;7.812;2024-02-16T03:39:10;8.80;87.60
72206;DHT22;60111;48.286;7.812;2024-02-16T03:41:42;8.70;87.80
72206;DHT22;60111;48.286;7.812;2024-02-16T03:44:17;8.70;87.90
72206;DHT22;60111;48.286;7.812;2024-02-16T03:46:50;8.70;88.00
72206;DHT22;60111;48.286;7.812;2024-02-16T03:49:23;8.70;87.90
72206;DHT22;60111;48.286;7.812;2024-02-16T03:51:55;8.70;87.90
72206;DHT22;60111;48.286;7.812;2024-02-16T03:57:04;8.70;88.00
72206;DHT22;60111;48.286;7.812;2024-02-16T03:59:38;8.60;88.00
72206;DHT22;60111;48.286;7.812;2024-02-16T04:02:12;8.60;88.00
72206;DHT22;60111;48.286;7.812;2024-02-16T04:04:46;8.60;88.10
72206;DHT22;60111;48.286;7.812;2024-02-16T04:07:19;8.70;88.00
72206;DHT22;60111;48.286;7.812;2024-02-16T04:09:51;8.60;88.20
72206;DHT22;60111;48.286;7.812;2024-02-16T04:12:24;8.60;88.30
72206;DHT22;60111;48.286;7.812;2024-02-16T04:14:56;8.60;88.40
72206;DHT22;60111;48.286;7.812;2024-02-16T04:17:29;8.70;88.40
72206;DHT22;60111;48.286;7.812;2024-02-16T04:20:02;8.70;88.20
72206;DHT22;60111;48.286;7.812;2024-02-16T04:22:34;8.70;87.90
72206;DHT22;60111;48.286;7.812;2024-02-16T04:25:09;8.80;87.20
72206;DHT22;60111;48.286;7.812;2024-02-16T04:27:41;8.90;86.70
72206;DHT22;60111;48.286;7.812;2024-02-16T04:30:14;9.00;86.40
72206;DHT22;60111;48.286;7.812;2024-02-16T04:32:47;9.00;86.30
72206;DHT22;60111;48.286;7.812;2024-02-16T04:35:20;8.90;86.50
72206;DHT22;60111;48.286;7.812;2024-02-16T04:37:52;8.90;86.50
72206;DHT22;60111;48.286;7.812;2024-02-16T04:40:25;8.90;86.50
72206;DHT22;60111;48.286;7.812;2024-02-16T04:42:58;8.90;86.30
72206;DHT22;60111;48.286;7.812;2024-02-16T04:45:31;8.90;86.30
72206;DHT22;60111;48.286;7.812;2024-02-16T04:48:04;8.90;86.10
72206;DHT22;60111;48.286;7.812;2024-02-16T04:50:37;8.90;86.10
72206;DHT22;60111;48.286;7.812;2024-02-16T04:53:09;8.90;86.00
72206;DHT22;60111;48.286;7.812;2024-02-16T04:55:42;8.90;86.00
72206;DHT22;60111;48.286;7.812;2024-02-16T04:58:14;8.90;85.80
72206;DHT22;60111;48.286;7.812;2024-02-16T05:00:48;8.90;85.80
72206;DHT22;60111;48.286;7.812;2024-02-16T05:03:20;8.80;85.90
72206;DHT22;60111;48.286;7.812;2024-02-16T05:05:53;8.80;86.00
72206;DHT22;60111;48.286;7.812;2024-02-16T05:08:25;8.80;86.00
72206;DHT22;60111;48.286;7.812;2024-02-16T05:10:59;8.80;86.00
72206;DHT22;60111;48.286;7.812;2024-02-16T05:13:33;8.80;86.10
72206;DHT22;60111;48.286;7.812;2024-02-16T05:16:12;8.70;86.10
72206;DHT22;60111;48.286;7.812;2024-02-16T05:18:41;8.70;86.10
72206;DHT22;60111;48.286;7.812;2024-02-16T05:21:13;8.70;86.30
72206;DHT22;60111;48.286;7.812;2024-02-16T05:23:46;8.60;86.30
72206;DHT22;60111;48.286;7.812;2024-02-16T05:26:19;8.60;86.40
72206;DHT22;60111;48.286;7.812;2024-02-16T05:28:52;8.60;86.50
72206;DHT22;60111;48.286;7.812;2024-02-16T05:31:24;8.60;86.60
72206;DHT22;60111;48.286;7.812;2024-02-16T05:33:57;8.60;86.70
72206;DHT22;60111;48.286;7.812;2024-02-16T05:36:29;8.50;86.80
72206;DHT22;60111;48.286;7.812;2024-02-16T05:39:04;8.50;86.80
72206;DHT22;60111;48.286;7.812;2024-02-16T05:41:44;8.60;86.80
72206;DHT22;60111;48.286;7.812;2024-02-16T05:44:18;8.60;86.70
72206;DHT22;60111;48.286;7.812;2024-02-16T05:46:51;8.60;86.30
72206;DHT22;60111;48.286;7.812;2024-02-16T05:49:23;8.70;86.00
72206;DHT22;60111;48.286;7.812;2024-02-16T05:51:56;8.70;85.80
72206;DHT22;60111;48.286;7.812;2024-02-16T05:54:48;8.80;85.50
72206;DHT22;60111;48.286;7.812;2024-02-16T05:57:20;8.80;85.00
72206;DHT22;60111;48.286;7.812;2024-02-16T05:59:53;8.90;84.60
72206;DHT22;60111;48.286;7.812;2024-02-16T06:02:25;8.80;84.50
72206;DHT22;60111;48.286;7.812;2024-02-16T06:05:02;8.90;84.40
72206;DHT22;60111;48.286;7.812;2024-02-16T06:07:36;8.90;84.40
72206;DHT22;60111;48.286;7.812;2024-02-16T06:10:12;8.90;84.10
72206;DHT22;60111;48.286;7.812;2024-02-16T06:12:45;8.90;83.90
72206;DHT22;60111;48.286;7.812;2024-02-16T06:15:18;8.90;83.80
72206;DHT22;60111;48.286;7.812;2024-02-16T06:17:51;8.90;83.80
72206;DHT22;60111;48.286;7.812;2024-02-16T06:20:23;8.90;83.90
72206;DHT22;60111;48.286;7.812;2024-02-16T06:22:56;8.80;84.00
72206;DHT22;60111;48.286;7.812;2024-02-16T06:25:29;8.90;84.10
72206;DHT22;60111;48.286;7.812;2024-02-16T06:28:01;8.90;83.40
72206;DHT22;60111;48.286;7.812;2024-02-16T06:30:34;8.90;83.40
72206;DHT22;60111;48.286;7.812;2024-02-16T06:33:07;8.80;83.40
72206;DHT22;60111;48.286;7.812;2024-02-16T06:35:39;8.80;83.60
72206;DHT22;60111;48.286;7.812;2024-02-16T06:38:12;8.80;83.80
72206;DHT22;60111;48.286;7.812;2024-02-16T06:40:45;8.80;83.90
72206;DHT22;60111;48.286;7.812;2024-02-16T06:43:18;8.80;83.90
72206;DHT22;60111;48.286;7.812;2024-02-16T06:45:51;8.80;83.90
72206;DHT22;60111;48.286;7.812;2024-02-16T06:48:23;8.80;83.80
72206;DHT22;60111;48.286;7.812;2024-02-16T06:50:56;8.80;83.80
72206;DHT22;60111;48.286;7.812;2024-02-16T06:53:28;8.80;83.70
72206;DHT22;60111;48.286;7.812;2024-02-16T06:56:01;8.80;83.60
72206;DHT22;60111;48.286;7.812;2024-02-16T06:58:35;8.80;83.60
72206;DHT22;60111;48.286;7.812;2024-02-16T07:01:08;8.80;83.60
72206;DHT22;60111;48.286;7.812;2024-02-16T07:03:41;8.90;83.60
72206;DHT22;60111;48.286;7.812;2024-02-16T07:06:14;8.80;83.60
72206;DHT22;60111;48.286;7.812;2024-02-16T07:08:48;8.90;83.70
72206;DHT22;60111;48.286;7.812;2024-02-16T07:11:20;8.90;83.80
72206;DHT22;60111;48.286;7.812;2024-02-16T07:13:53;8.90;83.90
72206;DHT22;60111;48.286;7.812;2024-02-16T07:16:26;8.90;83.80
72206;DHT22;60111;48.286;7.812;2024-02-16T07:18:59;8.90;83.90
72206;DHT22;60111;48.286;7.812;2024-02-16T07:21:31;8.90;83.70
72206;DHT22;60111;48.286;7.812;2024-02-16T07:24:05;8.90;83.70
72206;DHT22;60111;48.286;7.812;2024-02-16T07:26:37;8.90;83.60
72206;DHT22;60111;48.286;7.812;2024-02-16T07:29:10;9.00;83.50
72206;DHT22;60111;48.286;7.812;2024-02-16T07:31:44;9.00;83.50
72206;DHT22;60111;48.286;7.812;2024-02-16T07:34:17;9.00;83.50
72206;DHT22;60111;48.286;7.812;2024-02-16T07:36:49;9.00;83.40
72206;DHT22;60111;48.286;7.812;2024-02-16T07:39:23;9.10;83.30
72206;DHT22;60111;48.286;7.812;2024-02-16T07:41:56;9.10;83.30
72206;DHT22;60111;48.286;7.812;2024-02-16T07:44:29;9.20;83.30
72206;DHT22;60111;48.286;7.812;2024-02-16T07:47:02;9.20;83.10
72206;DHT22;60111;48.286;7.812;2024-02-16T07:49:37;9.30;83.00
72206;DHT22;60111;48.286;7.812;2024-02-16T07:52:11;9.30;82.90
72206;DHT22;60111;48.286;7.812;2024-02-16T07:54:43;9.40;82.80
72206;DHT22;60111;48.286;7.812;2024-02-16T07:57:16;9.40;82.60
72206;DHT22;60111;48.286;7.812;2024-02-16T07:59:48;9.50;82.60
72206;DHT22;60111;48.286;7.812;2024-02-16T08:02:21;9.50;82.80
72206;DHT22;60111;48.286;7.812;2024-02-16T08:04:53;9.60;82.90
72206;DHT22;60111;48.286;7.812;2024-02-16T08:07:26;9.70;82.70
72206;DHT22;60111;48.286;7.812;2024-02-16T08:09:59;9.80;82.40
72206;DHT22;60111;48.286;7.812;2024-02-16T08:12:32;9.90;81.80
72206;DHT22;60111;48.286;7.812;2024-02-16T08:15:07;10.00;81.50
72206;DHT22;60111;48.286;7.812;2024-02-16T08:17:40;10.10;81.50
72206;DHT22;60111;48.286;7.812;2024-02-16T08:20:13;10.20;81.30
72206;DHT22;60111;48.286;7.812;2024-02-16T08:22:46;10.30;81.20
72206;DHT22;60111;48.286;7.812;2024-02-16T08:25:18;10.40;80.70
72206;DHT22;60111;48.286;7.812;2024-02-16T08:27:51;10.60;79.90
72206;DHT22;60111;48.286;7.812;2024-02-16T08:30:24;10.70;79.20
72206;DHT22;60111;48.286;7.812;2024-02-16T08:32:57;10.80;78.70
72206;DHT22;60111;48.286;7.812;2024-02-16T08:35:31;10.90;78.70
72206;DHT22;60111;48.286;7.812;2024-02-16T08:38:04;11.00;78.40
72206;DHT22;60111;48.286;7.812;2024-02-16T08:40:37;11.00;78.00
72206;DHT22;60111;48.286;7.812;2024-02-16T08:43:25;11.10;78.10
72206;DHT22;60111;48.286;7.812;2024-02-16T08:45:58;11.20;78.00
72206;DHT22;60111;48.286;7.812;2024-02-16T08:48:30;11.30;78.00
72206;DHT22;60111;48.286;7.812;2024-02-16T08:51:03;11.40;77.40
72206;DHT22;60111;48.286;7.812;2024-02-16T08:53:38;11.50;75.60
72206;DHT22;60111;48.286;7.812;2024-02-16T08:56:10;11.60;75.30
72206;DHT22;60111;48.286;7.812;2024-02-16T08:58:43;11.70;75.00
72206;DHT22;60111;48.286;7.812;2024-02-16T09:01:16;11.80;75.10
72206;DHT22;60111;48.286;7.812;2024-02-16T09:03:49;11.90;75.90
72206;DHT22;60111;48.286;7.812;2024-02-16T09:06:21;12.00;76.00
72206;DHT22;60111;48.286;7.812;2024-02-16T09:08:54;12.00;75.80
72206;DHT22;60111;48.286;7.812;2024-02-16T09:11:27;12.10;75.30
72206;DHT22;60111;48.286;7.812;2024-02-16T09:14:00;12.30;74.20
72206;DHT22;60111;48.286;7.812;2024-02-16T09:16:33;12.50;74.00
72206;DHT22;60111;48.286;7.812;2024-02-16T09:19:08;12.70;73.60
72206;DHT22;60111;48.286;7.812;2024-02-16T09:21:41;12.90;70.90
72206;DHT22;60111;48.286;7.812;2024-02-16T09:24:13;13.00;69.40
72206;DHT22;60111;48.286;7.812;2024-02-16T09:26:49;13.20;68.30
72206;DHT22;60111;48.286;7.812;2024-02-16T09:29:22;13.40;66.40
72206;DHT22;60111;48.286;7.812;2024-02-16T09:31:54;13.80;64.30
72206;DHT22;60111;48.286;7.812;2024-02-16T09:34:27;13.90;64.80
72206;DHT22;60111;48.286;7.812;2024-02-16T09:36:59;14.00;63.00
72206;DHT22;60111;48.286;7.812;2024-02-16T09:39:32;14.10;61.70
72206;DHT22;60111;48.286;7.812;2024-02-16T09:42:06;14.30;62.50
72206;DHT22;60111;48.286;7.812;2024-02-16T09:44:38;14.30;61.70
72206;DHT22;60111;48.286;7.812;2024-02-16T09:47:12;14.30;61.80
72206;DHT22;60111;48.286;7.812;2024-02-16T09:49:48;14.40;62.10
72206;DHT22;60111;48.286;7.812;2024-02-16T09:52:21;14.50;61.50
72206;DHT22;60111;48.286;7.812;2024-02-16T09:54:53;14.60;60.90
72206;DHT22;60111;48.286;7.812;2024-02-16T09:57:26;14.70;61.70
72206;DHT22;60111;48.286;7.812;2024-02-16T09:59:59;14.80;61.30
72206;DHT22;60111;48.286;7.812;2024-02-16T10:02:45;14.90;61.20
72206;DHT22;60111;48.286;7.812;2024-02-16T10:05:22;15.00;60.50
72206;DHT22;60111;48.286;7.812;2024-02-16T10:07:54;15.10;60.00
72206;DHT22;60111;48.286;7.812;2024-02-16T10:10:28;15.20;59.80
72206;DHT22;60111;48.286;7.812;2024-02-16T10:13:06;15.20;60.40
72206;DHT22;60111;48.286;7.812;2024-02-16T10:15:39;15.30;59.90
72206;DHT22;60111;48.286;7.812;2024-02-16T10:18:12;15.40;59.70
72206;DHT22;60111;48.286;7.812;2024-02-16T10:20:45;15.60;59.80
72206;DHT22;60111;48.286;7.812;2024-02-16T10:23:17;15.70;59.00
72206;DHT22;60111;48.286;7.812;2024-02-16T10:25:50;15.80;58.50
72206;DHT22;60111;48.286;7.812;2024-02-16T10:28:23;15.90;58.20
72206;DHT22;60111;48.286;7.812;2024-02-16T10:30:59;16.00;57.50
72206;DHT22;60111;48.286;7.812;2024-02-16T10:33:37;15.90;58.60
72206;DHT22;60111;48.286;7.812;2024-02-16T10:36:10;16.00;58.20
72206;DHT22;60111;48.286;7.812;2024-02-16T10:38:44;16.00;58.30
72206;DHT22;60111;48.286;7.812;2024-02-16T10:41:18;16.00;57.10
72206;DHT22;60111;48.286;7.812;2024-02-16T10:43:53;16.00;56.60
72206;DHT22;60111;48.286;7.812;2024-02-16T10:46:26;16.00;56.90
72206;DHT22;60111;48.286;7.812;2024-02-16T10:52:26;16.10;58.50
72206;DHT22;60111;48.286;7.812;2024-02-16T10:54:59;16.20;57.80
72206;DHT22;60111;48.286;7.812;2024-02-16T10:57:39;16.50;57.90
72206;DHT22;60111;48.286;7.812;2024-02-16T11:00:12;16.80;56.30
72206;DHT22;60111;48.286;7.812;2024-02-16T11:03:01;17.00;54.60
72206;DHT22;60111;48.286;7.812;2024-02-16T11:05:40;17.00;54.90
72206;DHT22;60111;48.286;7.812;2024-02-16T11:08:21;17.00;55.70
72206;DHT22;60111;48.286;7.812;2024-02-16T11:10:59;17.00;56.00
72206;DHT22;60111;48.286;7.812;2024-02-16T11:13:35;16.90;55.60
72206;DHT22;60111;48.286;7.812;2024-02-16T11:16:09;16.80;55.50
72206;DHT22;60111;48.286;7.812;2024-02-16T11:18:45;16.70;56.60
72206;DHT22;60111;48.286;7.812;2024-02-16T11:21:21;16.60;57.00
72206;DHT22;60111;48.286;7.812;2024-02-16T11:24:03;16.60;56.50
72206;DHT22;60111;48.286;7.812;2024-02-16T11:26:30;16.40;56.60
72206;DHT22;60111;48.286;7.812;2024-02-16T11:29:02;16.30;57.20
72206;DHT22;60111;48.286;7.812;2024-02-16T11:31:35;16.30;56.70
72206;DHT22;60111;48.286;7.812;2024-02-16T11:34:07;16.20;56.60
72206;DHT22;60111;48.286;7.812;2024-02-16T11:36:41;16.20;57.70
72206;DHT22;60111;48.286;7.812;2024-02-16T11:39:14;16.10;58.20
72206;DHT22;60111;48.286;7.812;2024-02-16T11:42:04;16.00;57.90
72206;DHT22;60111;48.286;7.812;2024-02-16T11:44:35;16.00;58.00
72206;DHT22;60111;48.286;7.812;2024-02-16T11:47:08;16.00;59.00
72206;DHT22;60111;48.286;7.812;2024-02-16T11:49:43;16.00;58.50
72206;DHT22;60111;48.286;7.812;2024-02-16T11:52:16;16.00;59.10
72206;DHT22;60111;48.286;7.812;2024-02-16T11:54:49;15.90;59.90
72206;DHT22;60111;48.286;7.812;2024-02-16T11:57:22;15.90;60.10
72206;DHT22;60111;48.286;7.812;2024-02-16T11:59:55;15.90;60.90
72206;DHT22;60111;48.286;7.812;2024-02-16T12:02:28;15.80;61.00
72206;DHT22;60111;48.286;7.812;2024-02-16T12:05:01;15.80;61.20
72206;DHT22;60111;48.286;7.812;2024-02-16T12:07:38;15.80;61.00
72206;DHT22;60111;48.286;7.812;2024-02-16T12:10:14;15.80;61.00
72206;DHT22;60111;48.286;7.812;2024-02-16T12:12:48;15.80;61.40
72206;DHT22;60111;48.286;7.812;2024-02-16T12:15:21;15.80;62.00
72206;DHT22;60111;48.286;7.812;2024-02-16T12:18:00;15.80;61.10
72206;DHT22;60111;48.286;7.812;2024-02-16T12:20:33;15.80;60.90
72206;DHT22;60111;48.286;7.812;2024-02-16T12:23:12;15.80;61.20
72206;DHT22;60111;48.286;7.812;2024-02-16T12:25:45;15.60;61.60
72206;DHT22;60111;48.286;7.812;2024-02-16T12:28:17;15.60;62.20
72206;DHT22;60111;48.286;7.812;2024-02-16T12:30:51;15.60;62.70
72206;DHT22;60111;48.286;7.812;2024-02-16T12:33:24;15.60;62.80
72206;DHT22;60111;48.286;7.812;2024-02-16T12:35:57;15.60;63.30
72206;DHT22;60111;48.286;7.812;2024-02-16T12:38:29;15.50;63.50
72206;DHT22;60111;48.286;7.812;2024-02-16T12:41:03;15.50;64.30
72206;DHT22;60111;48.286;7.812;2024-02-16T12:43:36;15.50;64.40
72206;DHT22;60111;48.286;7.812;2024-02-16T12:46:08;15.40;65.60
72206;DHT22;60111;48.286;7.812;2024-02-16T12:48:41;15.40;66.30
72206;DHT22;60111;48.286;7.812;2024-02-16T12:51:33;15.40;67.10
72206;DHT22;60111;48.286;7.812;2024-02-16T12:54:06;15.30;67.90
72206;DHT22;60111;48.286;7.812;2024-02-16T12:56:39;15.30;68.80
72206;DHT22;60111;48.286;7.812;2024-02-16T12:59:12;15.20;69.50
72206;DHT22;60111;48.286;7.812;2024-02-16T13:01:44;15.10;69.90
72206;DHT22;60111;48.286;7.812;2024-02-16T13:04:17;15.10;71.60
72206;DHT22;60111;48.286;7.812;2024-02-16T13:06:52;14.90;71.50
72206;DHT22;60111;48.286;7.812;2024-02-16T13:09:24;14.90;72.00
72206;DHT22;60111;48.286;7.812;2024-02-16T13:11:57;14.70;73.20
72206;DHT22;60111;48.286;7.812;2024-02-16T13:14:29;14.70;74.60
72206;DHT22;60111;48.286;7.812;2024-02-16T13:17:03;14.60;74.70
72206;DHT22;60111;48.286;7.812;2024-02-16T13:19:36;14.50;74.90
72206;DHT22;60111;48.286;7.812;2024-02-16T13:22:09;14.50;75.60
72206;DHT22;60111;48.286;7.812;2024-02-16T13:24:42;14.50;75.50
72206;DHT22;60111;48.286;7.812;2024-02-16T13:27:14;14.50;75.50
72206;DHT22;60111;48.286;7.812;2024-02-16T13:29:47;14.50;75.10
72206;DHT22;60111;48.286;7.812;2024-02-16T13:32:20;14.40;75.80
72206;DHT22;60111;48.286;7.812;2024-02-16T13:34:52;14.40;75.60
72206;DHT22;60111;48.286;7.812;2024-02-16T13:37:25;14.40;75.60
72206;DHT22;60111;48.286;7.812;2024-02-16T13:39:58;14.40;75.40
72206;DHT22;60111;48.286;7.812;2024-02-16T13:42:30;14.40;74.70
72206;DHT22;60111;48.286;7.812;2024-02-16T13:45:03;14.40;74.30
72206;DHT22;60111;48.286;7.812;2024-02-16T13:47:36;14.50;74.70
72206;DHT22;60111;48.286;7.812;2024-02-16T13:50:11;14.40;74.80
72206;DHT22;60111;48.286;7.812;2024-02-16T13:52:43;14.30;76.50
72206;DHT22;60111;48.286;7.812;2024-02-16T13:55:16;14.30;76.10
72206;DHT22;60111;48.286;7.812;2024-02-16T13:57:50;14.30;77.50
72206;DHT22;60111;48.286;7.812;2024-02-16T14:00:22;14.30;77.50
72206;DHT22;60111;48.286;7.812;2024-02-16T14:02:55;14.20;77.50
72206;DHT22;60111;48.286;7.812;2024-02-16T14:05:28;14.10;78.40
72206;DHT22;60111;48.286;7.812;2024-02-16T14:08:01;14.00;78.90
72206;DHT22;60111;48.286;7.812;2024-02-16T14:10:35;14.00;79.20
72206;DHT22;60111;48.286;7.812;2024-02-16T14:13:08;14.00;79.60
72206;DHT22;60111;48.286;7.812;2024-02-16T14:15:41;14.00;79.20
72206;DHT22;60111;48.286;7.812;2024-02-16T14:18:14;14.00;80.00
72206;DHT22;60111;48.286;7.812;2024-02-16T14:21:05;14.00;79.40
72206;DHT22;60111;48.286;7.812;2024-02-16T14:23:38;14.10;79.40
72206;DHT22;60111;48.286;7.812;2024-02-16T14:26:11;14.00;80.10
72206;DHT22;60111;48.286;7.812;2024-02-16T14:28:43;14.10;79.40
72206;DHT22;60111;48.286;7.812;2024-02-16T14:31:16;14.10;80.30
72206;DHT22;60111;48.286;7.812;2024-02-16T14:33:50;14.10;80.20
72206;DHT22;60111;48.286;7.812;2024-02-16T14:36:23;14.10;79.90
72206;DHT22;60111;48.286;7.812;2024-02-16T14:38:55;14.20;79.80
72206;DHT22;60111;48.286;7.812;2024-02-16T14:41:28;14.10;79.90
72206;DHT22;60111;48.286;7.812;2024-02-16T14:44:01;14.10;80.30
72206;DHT22;60111;48.286;7.812;2024-02-16T14:46:34;14.20;80.00
72206;DHT22;60111;48.286;7.812;2024-02-16T14:49:07;14.20;80.60
72206;DHT22;60111;48.286;7.812;2024-02-16T14:51:42;14.20;80.60
72206;DHT22;60111;48.286;7.812;2024-02-16T14:54:15;14.30;80.30
72206;DHT22;60111;48.286;7.812;2024-02-16T14:56:48;14.30;79.30
72206;DHT22;60111;48.286;7.812;2024-02-16T14:59:21;14.20;80.20
72206;DHT22;60111;48.286;7.812;2024-02-16T15:01:54;14.20;80.00
72206;DHT22;60111;48.286;7.812;2024-02-16T15:04:27;14.20;79.80
72206;DHT22;60111;48.286;7.812;2024-02-16T15:07:00;14.10;80.40
72206;DHT22;60111;48.286;7.812;2024-02-16T15:09:32;14.00;80.80
72206;DHT22;60111;48.286;7.812;2024-02-16T15:12:06;14.00;81.10
72206;DHT22;60111;48.286;7.812;2024-02-16T15:14:39;14.00;81.20
72206;DHT22;60111;48.286;7.812;2024-02-16T15:17:12;14.00;80.80
72206;DHT22;60111;48.286;7.812;2024-02-16T15:19:45;13.90;80.80
72206;DHT22;60111;48.286;7.812;2024-02-16T15:22:17;13.90;81.00
72206;DHT22;60111;48.286;7.812;2024-02-16T15:24:50;13.90;81.40
72206;DHT22;60111;48.286;7.812;2024-02-16T15:27:22;13.90;81.40
72206;DHT22;60111;48.286;7.812;2024-02-16T15:29:55;13.90;81.50
72206;DHT22;60111;48.286;7.812;2024-02-16T15:32:27;13.80;81.60
72206;DHT22;60111;48.286;7.812;2024-02-16T15:35:02;13.80;81.90
72206;DHT22;60111;48.286;7.812;2024-02-16T15:37:35;13.80;82.10
72206;DHT22;60111;48.286;7.812;2024-02-16T15:40:08;13.80;82.20
72206;DHT22;60111;48.286;7.812;2024-02-16T15:42:41;13.80;82.30
72206;DHT22;60111;48.286;7.812;2024-02-16T15:45:14;13.80;82.30
72206;DHT22;60111;48.286;7.812;2024-02-16T15:47:48;13.80;82.40
72206;DHT22;60111;48.286;7.812;2024-02-16T15:50:21;13.80;82.60
72206;DHT22;60111;48.286;7.812;2024-02-16T15:52:53;13.80;82.70
72206;DHT22;60111;48.286;7.812;2024-02-16T15:55:26;13.80;82.90
72206;DHT22;60111;48.286;7.812;2024-02-16T15:57:58;13.80;83.10
72206;DHT22;60111;48.286;7.812;2024-02-16T16:00:31;13.80;83.20
72206;DHT22;60111;48.286;7.812;2024-02-16T16:03:04;13.80;83.30
72206;DHT22;60111;48.286;7.812;2024-02-16T16:05:38;13.70;83.70
72206;DHT22;60111;48.286;7.812;2024-02-16T16:08:11;13.70;83.90
72206;DHT22;60111;48.286;7.812;2024-02-16T16:10:45;13.70;83.80
72206;DHT22;60111;48.286;7.812;2024-02-16T16:13:18;13.70;83.90
72206;DHT22;60111;48.286;7.812;2024-02-16T16:15:52;13.70;84.00
72206;DHT22;60111;48.286;7.812;2024-02-16T16:18:24;13.70;84.20
72206;DHT22;60111;48.286;7.812;2024-02-16T16:20:57;13.70;84.50
72206;DHT22;60111;48.286;7.812;2024-02-16T16:23:30;13.70;84.50